Capon Springs, WV

12:21 EST le 18 décembre 2014 (GMT -0500)
Greater Cumberland Regional | Change Station
CLOSE
Current Station
Aéroport
Location: Cumberland,
Altitude: 774 ft
Stations météo à proximité

Alt. 774 ft 39.62 °N, 78.76 °W | Updated 11 minutes ago

Nuageux
Nuageux
34 ° F
Paraît 25 ° F
N
12
Vent Variable Vent de OSO
Gusts 16 mph

Aujourd'hui
Haut(e) -- | Bas -- ° F
--% Risque de précip.
Hier
Haut(e) -- | Bas -- ° F
Precip. -- pouce
7:27 AM 4:53 PM
Lune descendante, 13% visible
Pression 30.21 pouce
Visibilité 10.0 Miles terrestres
Nuages Nuages épars 3200 ft
Nuageux 3900 ft
Refroidissement éolien 25 ° F
Point de rosée 21 ° F
Humidité 60%
Précipitations 0.00 pouce
Profondeur de la couche neigeuse Non disponible.
UV 1 sur 12
Pollen .10 sur 12
Qualité de l'air Non disponible.
Flu Activity Non disponible.
METAR KCBE 181710Z AUTO 25010G14KT 10SM SCT032 BKN039 01/M06 A3021 RMK AO1

More Conditions Fewer Conditions

Pression 30.21 pouce
Visibilité 10.0 Miles terrestres
Nuages Nuages épars 3200 ft
Nuageux 3900 ft
Refroidissement éolien 25 ° F
Point de rosée 21 ° F
Humidité 60%
Précipitations 0.00 pouce
Profondeur de la couche neigeuse Non disponible.
UV 1 sur 12
Pollen .10 sur 12
Qualité de l'air Non disponible.
Flu Activity Non disponible.
METAR KCBE 181710Z AUTO 25010G14KT 10SM SCT032 BKN039 01/M06 A3021 RMK AO1

More Conditions Fewer Conditions

10-Day Weather Forecast

Almanac

Astronomie

Dec. 18, 2014 Lever Coucher
Temps réel
Crépuscule civil
Crépuscule nautique
Crépuscule astronomique
Lune
Durée de lumière visible
Longueur du jour
Tomorrow will be .
, % of the Moon is Illuminated

Extrêmes aujourd'hui

State Highs State Lows

Community

WunderPhotos

Upload Photos

1,778,964 Photos téléchargées !

WunderBlogs® & News

Nearby

Qualité de l'air

  Qualité de l'air Indice de la qualité de l'air Polluant
Not available.

Épaisseur de neige

Station Depth Altitude

Activité sismique

Ville Distance Mag. Time & Date
Minimum magnitude displayed is 2.5.

Températures des eaux côtières

Lieu Température

Stations météo à proximité